Time;durP1;ratioP1;P1;durP2;ratioP2;P2;SDS_P1;SDS_P2;PMS_P1;PMS_P2;Temp;Humidity;BMP_temperature;BMP_pressure;BME280_temperature;BME280_humidity;BME280_pressure;Samples;Min_cycle;Max_cycle;Signal;HPM_P1;HPM_P2
2023/07/19 00:02:10;;;;;;;7.70;2.67;;;;;;;17.72;71.61;101252.72;5285205;28;20032;-71
2023/07/19 00:04:42;;;;;;;8.57;3.23;;;;;;;17.76;72.27;101246.44;5285120;28;20495;-71
2023/07/19 00:07:13;;;;;;;7.30;2.80;;;;;;;17.73;71.80;101243.06;5284807;28;20031;-72
2023/07/19 00:09:45;;;;;;;6.90;3.20;;;;;;;17.57;72.20;101243.59;5285041;28;20044;-71
2023/07/19 00:12:16;;;;;;;4.73;2.57;;;;;;;17.48;72.35;101236.88;5283655;28;20039;-71
2023/07/19 00:14:47;;;;;;;6.53;3.23;;;;;;;17.48;72.36;101239.50;5285041;28;20037;-71
2023/07/19 00:17:19;;;;;;;8.00;3.10;;;;;;;17.38;72.64;101245.13;5283510;28;20033;-71
2023/07/19 00:19:50;;;;;;;9.93;2.90;;;;;;;17.41;73.05;101245.88;5284878;28;20075;-71
2023/07/19 00:22:21;;;;;;;7.57;3.23;;;;;;;17.34;73.19;101230.31;5284422;28;20047;-71
2023/07/19 00:24:53;;;;;;;6.93;2.67;;;;;;;17.38;73.71;101235.44;5284641;28;20033;-69
2023/07/19 00:27:24;;;;;;;4.60;2.80;;;;;;;17.24;73.99;101224.50;5283955;28;20024;-71
2023/07/19 00:29:56;;;;;;;4.53;2.60;;;;;;;17.21;74.86;101227.25;5284494;28;20456;-70
2023/07/19 00:32:27;;;;;;;9.53;3.07;;;;;;;17.19;74.74;101221.19;5284151;28;20136;-70
2023/07/19 00:34:58;;;;;;;5.47;3.23;;;;;;;17.05;75.35;101216.34;5283343;28;20112;-71
2023/07/19 00:37:30;;;;;;;9.07;2.77;;;;;;;17.18;75.20;101220.31;5299814;28;20040;-70
2023/07/19 00:40:03;;;;;;;8.03;2.80;;;;;;;17.12;75.03;101209.97;5283169;28;20040;-71
2023/07/19 00:42:35;;;;;;;7.53;2.63;;;;;;;16.96;76.03;101204.34;5283029;28;20487;-71
2023/07/19 00:45:06;;;;;;;8.00;2.73;;;;;;;16.95;76.23;101205.25;5284354;28;20082;-71
2023/07/19 00:47:39;;;;;;;8.85;3.08;;;;;;;16.95;76.19;101200.88;5284199;28;20086;-71
2023/07/19 00:50:11;;;;;;;6.38;3.33;;;;;;;16.69;77.14;101191.13;5284157;28;20090;-71
2023/07/19 00:52:43;;;;;;;10.23;2.88;;;;;;;16.59;77.75;101197.59;5282845;28;20642;-71
2023/07/19 00:55:14;;;;;;;6.17;2.93;;;;;;;16.71;77.67;101199.88;5284038;28;20131;-69
2023/07/19 00:57:46;;;;;;;4.50;2.60;;;;;;;16.80;78.06;101189.94;5283297;28;20085;-70
2023/07/19 01:00:18;;;;;;;6.10;3.23;;;;;;;16.77;78.13;101196.16;5283883;28;20123;-70
2023/07/19 01:02:49;;;;;;;5.38;2.67;;;;;;;16.68;78.34;101197.31;5283895;28;20059;-70
2023/07/19 01:05:21;;;;;;;5.53;2.60;;;;;;;16.69;78.26;101199.03;5283626;28;20036;-69
2023/07/19 01:07:53;;;;;;;5.07;2.40;;;;;;;16.78;78.68;101204.00;5283783;28;20033;-70
2023/07/19 01:10:29;;;;;;;5.75;2.78;;;;;;;16.58;79.22;101195.88;5283766;28;20041;-70
2023/07/19 01:13:05;;;;;;;8.23;3.03;;;;;;;16.57;79.51;101189.75;5283659;28;20068;-70
2023/07/19 01:15:37;;;;;;;6.35;2.17;;;;;;;16.63;79.81;101183.47;5283783;28;20029;-70
2023/07/19 01:18:09;;;;;;;6.05;2.38;;;;;;;16.63;79.83;101180.81;5283765;28;20039;-70
2023/07/19 01:20:40;;;;;;;5.70;2.20;;;;;;;16.64;79.92;101184.31;5299345;28;20492;-70
2023/07/19 01:23:12;;;;;;;5.57;2.57;;;;;;;16.61;79.83;101177.34;5283668;28;20479;-71
2023/07/19 01:25:43;;;;;;;7.10;2.57;;;;;;;16.62;79.48;101186.97;5283625;28;20036;-70
2023/07/19 01:28:15;;;;;;;5.77;2.43;;;;;;;16.68;79.88;101176.28;5283143;28;20032;-70
2023/07/19 01:30:46;;;;;;;5.87;2.50;;;;;;;16.58;80.29;101174.81;5283475;28;20035;-70
2023/07/19 01:33:17;;;;;;;5.47;2.80;;;;;;;16.64;80.34;101174.63;5283382;28;20306;-70
2023/07/19 01:35:49;;;;;;;5.87;2.30;;;;;;;16.65;80.11;101171.09;5282625;28;20040;-70
2023/07/19 01:38:20;;;;;;;5.37;2.50;;;;;;;16.61;80.39;101171.25;5283718;28;20036;-70
2023/07/19 01:40:51;;;;;;;6.27;3.00;;;;;;;16.40;80.71;101169.25;5283564;28;20029;-70
2023/07/19 01:43:23;;;;;;;4.63;2.47;;;;;;;16.49;80.78;101164.59;5283425;28;20365;-70
2023/07/19 01:45:54;;;;;;;9.53;3.33;;;;;;;16.48;80.81;101165.50;5283781;28;20032;-70
2023/07/19 01:48:26;;;;;;;6.20;2.70;;;;;;;16.63;80.44;101167.66;5282990;28;20035;-71
2023/07/19 01:50:57;;;;;;;7.30;2.97;;;;;;;16.56;80.59;101164.34;5283158;28;20024;-70
2023/07/19 01:53:28;;;;;;;5.07;2.50;;;;;;;16.65;80.64;101163.19;5282876;28;20028;-72
2023/07/19 01:56:00;;;;;;;7.10;3.50;;;;;;;16.55;80.42;101167.00;5283352;28;20047;-69
2023/07/19 01:58:31;;;;;;;5.73;2.53;;;;;;;16.50;80.06;101161.94;5282778;28;20029;-70
2023/07/19 02:01:02;;;;;;;8.30;2.70;;;;;;;16.30;80.84;101161.69;5283544;28;20078;-70
2023/07/19 02:03:34;;;;;;;7.50;2.80;;;;;;;16.30;81.28;101173.06;5282813;28;20048;-71
2023/07/19 02:06:05;;;;;;;5.13;2.73;;;;;;;16.22;81.38;101165.38;5283260;28;20051;-70
2023/07/19 02:08:37;;;;;;;6.10;2.40;;;;;;;16.46;81.25;101169.97;5283180;28;20535;-70
2023/07/19 02:11:08;;;;;;;6.73;2.50;;;;;;;16.44;81.17;101162.13;5283281;28;20037;-69
2023/07/19 02:13:39;;;;;;;6.60;3.03;;;;;;;16.53;80.92;101164.44;5283109;28;20028;-69
2023/07/19 02:16:11;;;;;;;5.23;3.10;;;;;;;16.51;81.76;101165.41;5283266;28;20118;-70
2023/07/19 02:18:42;;;;;;;9.20;3.40;;;;;;;16.52;81.08;101168.00;5282951;28;20040;-70
2023/07/19 02:21:13;;;;;;;6.17;2.40;;;;;;;16.37;81.57;101147.41;5283175;28;20033;-70
2023/07/19 02:23:45;;;;;;;3.80;2.40;;;;;;;16.32;82.33;101138.81;5283010;28;20129;-70
2023/07/19 02:26:16;;;;;;;5.30;2.23;;;;;;;16.32;82.32;101144.06;5282906;28;20033;-70
2023/07/19 02:28:47;;;;;;;5.67;2.63;;;;;;;16.21;82.23;101152.28;5283076;28;20033;-70
2023/07/19 02:31:19;;;;;;;5.70;2.67;;;;;;;16.25;82.53;101153.06;5283236;28;20047;-70
2023/07/19 02:33:50;;;;;;;4.63;2.53;;;;;;;16.30;82.57;101157.28;5282490;28;20064;-70
2023/07/19 02:36:21;;;;;;;6.73;2.70;;;;;;;16.49;82.95;101151.44;5282968;28;20028;-70
2023/07/19 02:38:53;;;;;;;6.20;3.40;;;;;;;16.46;82.31;101138.38;5283211;28;20033;-70
2023/07/19 02:41:24;;;;;;;5.93;2.97;;;;;;;16.47;82.37;101142.72;5282642;28;20037;-70
2023/07/19 02:43:55;;;;;;;7.90;3.00;;;;;;;16.41;82.59;101151.69;5282849;28;20028;-70
2023/07/19 02:46:28;;;;;;;8.07;2.80;;;;;;;16.40;81.83;101148.19;5284312;28;20067;-71
2023/07/19 02:48:59;;;;;;;9.55;2.75;;;;;;;16.58;82.40;101154.66;5286341;28;20028;-70
2023/07/19 02:51:31;;;;;;;14.10;3.67;;;;;;;16.47;81.71;101159.38;5286346;28;20488;-71
2023/07/19 02:54:02;;;;;;;9.20;3.50;;;;;;;16.53;81.92;101153.06;5302349;28;20075;-69
2023/07/19 02:56:34;;;;;;;8.60;2.73;;;;;;;16.64;80.84;101150.09;5286510;28;20467;-69
2023/07/19 02:59:05;;;;;;;9.00;3.10;;;;;;;16.50;80.74;101153.16;5284802;28;20029;-70
2023/07/19 03:01:37;;;;;;;5.27;2.60;;;;;;;16.47;81.29;101156.75;5286354;28;20035;-70
2023/07/19 03:04:08;;;;;;;6.22;3.13;;;;;;;16.57;80.11;101152.91;5286055;28;20037;-69
2023/07/19 03:06:40;;;;;;;5.70;3.37;;;;;;;16.63;80.78;101146.59;5286252;28;20032;-70
2023/07/19 03:09:13;;;;;;;8.87;3.23;;;;;;;16.62;79.19;101147.50;5286198;28;20174;-69
2023/07/19 03:11:45;;;;;;;6.63;3.72;;;;;;;16.46;81.75;101151.53;5286065;28;20025;-70
2023/07/19 03:14:16;;;;;;;14.90;4.67;;;;;;;16.27;82.77;101157.34;5285845;28;20059;-70
2023/07/19 03:16:47;;;;;;;6.30;3.40;;;;;;;16.28;84.28;101158.25;5286108;28;20357;-70
2023/07/19 03:19:19;;;;;;;10.50;3.70;;;;;;;16.34;85.40;101158.03;5286054;28;20024;-71
2023/07/19 03:21:50;;;;;;;7.50;4.33;;;;;;;16.25;84.70;101151.28;5286120;28;20032;-71
2023/07/19 03:24:22;;;;;;;6.40;3.33;;;;;;;16.31;86.73;101156.38;5285716;28;20029;-71
2023/07/19 03:26:53;;;;;;;8.57;4.87;;;;;;;16.21;84.96;101162.81;5284432;28;20399;-72
2023/07/19 03:29:25;;;;;;;8.97;4.53;;;;;;;16.12;86.70;101173.63;5285527;28;20029;-70
2023/07/19 03:31:56;;;;;;;8.30;4.17;;;;;;;16.09;85.95;101176.34;5285958;28;20028;-70
2023/07/19 03:34:27;;;;;;;7.83;4.27;;;;;;;16.10;86.27;101172.78;5285344;28;20044;-70
2023/07/19 03:36:59;;;;;;;9.27;3.90;;;;;;;16.03;87.05;101169.47;5285743;28;20185;-70
2023/07/19 03:39:30;;;;;;;8.73;4.20;;;;;;;16.17;87.15;101166.44;5285703;28;20056;-70
2023/07/19 03:42:01;;;;;;;8.87;3.33;;;;;;;16.14;89.87;101164.75;5284370;28;20036;-70
2023/07/19 03:44:33;;;;;;;7.53;3.77;;;;;;;16.06;88.42;101172.03;5284284;28;20384;-70
2023/07/19 03:47:04;;;;;;;6.47;4.20;;;;;;;16.06;88.59;101174.66;5285584;28;20036;-70
2023/07/19 03:49:36;;;;;;;5.47;3.50;;;;;;;16.13;88.52;101164.81;5285400;28;20056;-70
2023/07/19 03:52:07;;;;;;;7.63;4.07;;;;;;;16.16;89.80;101168.19;5285505;28;20297;-70
2023/07/19 03:54:38;;;;;;;5.90;3.53;;;;;;;16.12;91.35;101161.31;5285127;28;20032;-70
2023/07/19 03:57:10;;;;;;;6.93;3.60;;;;;;;16.14;91.13;101166.53;5284947;28;20159;-70
2023/07/19 03:59:41;;;;;;;7.57;4.10;;;;;;;16.28;89.04;101168.75;5284575;28;20029;-71
2023/07/19 04:02:12;;;;;;;8.43;3.87;;;;;;;16.15;89.31;101178.78;5285127;28;20059;-71
2023/07/19 04:04:44;;;;;;;13.70;4.30;;;;;;;16.12;90.48;101179.72;5285015;28;20033;-71
2023/07/19 04:07:15;;;;;;;9.20;4.40;;;;;;;16.25;89.97;101169.69;5284818;28;20480;-70
2023/07/19 04:09:46;;;;;;;6.53;3.57;;;;;;;16.28;89.79;101172.25;5285377;28;20440;-70
2023/07/19 04:12:18;;;;;;;7.30;4.17;;;;;;;16.25;89.75;101163.59;5285087;28;20487;-70
2023/07/19 04:14:49;;;;;;;6.03;4.10;;;;;;;16.39;88.75;101167.50;5284962;28;20033;-70
2023/07/19 04:17:21;;;;;;;8.20;4.43;;;;;;;16.31;87.53;101164.25;5285001;28;20036;-69
2023/07/19 04:19:52;;;;;;;11.70;4.07;;;;;;;16.35;88.29;101171.13;5284570;28;20032;-71
2023/07/19 04:22:23;;;;;;;7.20;4.60;;;;;;;16.22;86.77;101164.53;5284493;28;20051;-70
2023/07/19 04:24:55;;;;;;;11.33;4.40;;;;;;;16.21;85.49;101168.06;5284829;28;20060;-71
2023/07/19 04:27:26;;;;;;;7.97;4.87;;;;;;;16.19;85.33;101165.47;5284769;28;20039;-71
2023/07/19 04:29:58;;;;;;;6.03;4.23;;;;;;;16.18;84.55;101170.78;5284298;28;20039;-71
2023/07/19 04:32:29;;;;;;;8.30;5.63;;;;;;;16.20;84.55;101166.34;5284295;28;20045;-71
2023/07/19 04:35:01;;;;;;;12.60;4.97;;;;;;;16.13;85.06;101164.81;5284656;28;20035;-71
2023/07/19 04:37:32;;;;;;;7.57;5.07;;;;;;;16.13;85.75;101165.69;5284168;28;20427;-71
2023/07/19 04:40:06;;;;;;;8.07;4.40;;;;;;;16.17;85.38;101169.94;5282988;28;20032;-71
2023/07/19 04:42:37;;;;;;;9.82;4.78;;;;;;;16.22;84.82;101181.16;5284248;28;20032;-72
2023/07/19 04:45:09;;;;;;;8.97;4.80;;;;;;;16.30;84.81;101180.94;5284079;28;20033;-72
2023/07/19 04:47:40;;;;;;;9.90;4.93;;;;;;;16.38;84.93;101175.44;5283911;28;20033;-72
2023/07/19 04:50:12;;;;;;;9.43;4.70;;;;;;;16.33;84.95;101178.22;5284308;28;20278;-72
2023/07/19 04:52:45;;;;;;;9.17;4.43;;;;;;;16.39;84.58;101178.03;5284138;28;20373;-72
2023/07/19 04:55:17;;;;;;;11.07;5.40;;;;;;;16.44;84.60;101182.28;5284193;28;20033;-72
2023/07/19 04:57:48;;;;;;;5.70;4.40;;;;;;;16.38;84.14;101183.34;5283462;28;20055;-72
2023/07/19 05:00:19;;;;;;;14.50;5.10;;;;;;;16.33;83.62;101186.13;5282905;28;20029;-72
2023/07/19 05:02:51;;;;;;;13.93;4.80;;;;;;;16.29;83.78;101187.09;5282809;28;20067;-71
2023/07/19 05:05:22;;;;;;;9.60;4.73;;;;;;;16.36;83.96;101193.06;5282700;28;20094;-72
2023/07/19 05:07:53;;;;;;;8.20;4.53;;;;;;;16.37;83.23;101185.13;5283951;28;20502;-72
2023/07/19 05:10:25;;;;;;;9.40;5.10;;;;;;;16.39;83.31;101187.72;5283092;28;20093;-71
2023/07/19 05:12:56;;;;;;;12.30;4.80;;;;;;;16.40;83.08;101189.41;5283739;28;20515;-72
2023/07/19 05:15:28;;;;;;;8.43;4.60;;;;;;;16.42;82.91;101184.97;5283800;28;20032;-71
2023/07/19 05:18:00;;;;;;;7.17;4.73;;;;;;;16.46;82.39;101193.66;5283807;28;20028;-71
2023/07/19 05:20:32;;;;;;;;;;;;;;;16.59;81.71;101185.28;5284080;28;20035;-71
2023/07/19 05:23:03;;;;;;;10.10;4.82;;;;;;;16.55;82.00;101188.06;5283777;28;20287;-71
2023/07/19 05:25:34;;;;;;;7.83;4.73;;;;;;;16.64;81.88;101192.19;5283460;28;20117;-72
2023/07/19 05:28:06;;;;;;;10.87;4.63;;;;;;;16.65;81.67;101189.53;5282424;28;20028;-71
2023/07/19 05:30:37;;;;;;;7.15;4.78;;;;;;;16.80;82.25;101197.84;5283373;28;20495;-71
2023/07/19 05:33:09;;;;;;;7.77;4.37;;;;;;;17.09;81.78;101192.50;5283468;28;20076;-71
2023/07/19 05:35:40;;;;;;;8.97;5.03;;;;;;;17.07;80.33;101188.22;5282350;28;20032;-72
2023/07/19 05:38:12;;;;;;;12.17;5.87;;;;;;;17.11;80.19;101192.44;5283591;28;20027;-72
2023/07/19 05:40:44;;;;;;;11.05;4.57;;;;;;;17.20;79.53;101192.16;5283444;28;20457;-71
2023/07/19 05:43:15;;;;;;;9.40;4.87;;;;;;;17.24;79.34;101185.88;5283533;28;20081;-72
2023/07/19 05:45:47;;;;;;;7.57;4.80;;;;;;;17.40;79.83;101180.06;5283793;28;20033;-72
2023/07/19 05:48:18;;;;;;;10.07;4.77;;;;;;;17.49;78.75;101188.50;5283484;28;20036;-72
2023/07/19 05:50:49;;;;;;;10.27;5.00;;;;;;;17.43;78.21;101188.72;5283650;28;20036;-71
2023/07/19 05:53:21;;;;;;;7.80;4.63;;;;;;;17.50;77.63;101187.59;5283391;28;20111;-72
2023/07/19 05:55:52;;;;;;;9.47;5.43;;;;;;;17.58;77.85;101192.59;5283388;28;20036;-72
2023/07/19 05:58:23;;;;;;;11.73;5.17;;;;;;;17.70;76.76;101186.00;5283041;28;20035;-73
2023/07/19 06:00:55;;;;;;;10.03;4.73;;;;;;;17.75;75.80;101189.34;5283397;28;20036;-72
2023/07/19 06:03:26;;;;;;;11.17;5.37;;;;;;;17.79;75.79;101200.63;5283339;28;20089;-73
2023/07/19 06:05:58;;;;;;;13.17;5.40;;;;;;;17.88;74.30;101197.69;5283316;28;20075;-72
2023/07/19 06:08:29;;;;;;;13.00;5.03;;;;;;;17.87;74.57;101198.59;5283251;28;20025;-74
2023/07/19 06:11:00;;;;;;;17.80;5.33;;;;;;;17.93;74.34;101189.63;5283315;28;20055;-72
2023/07/19 06:13:32;;;;;;;13.53;5.33;;;;;;;17.92;74.65;101196.69;5283036;28;20029;-71
2023/07/19 06:16:03;;;;;;;9.83;4.70;;;;;;;18.01;74.02;101196.31;5265325;28;20123;-73
2023/07/19 06:18:35;;;;;;;9.43;5.47;;;;;;;18.14;74.25;101196.72;5283205;28;20032;-72
2023/07/19 06:21:06;;;;;;;9.80;5.10;;;;;;;18.33;73.53;101188.97;5284326;28;20124;-72
2023/07/19 06:23:37;;;;;;;11.50;4.93;;;;;;;18.50;72.94;101190.94;5287323;28;20040;-72
2023/07/19 06:26:10;;;;;;;8.20;5.00;;;;;;;18.45;72.00;101190.28;5287267;28;20119;-72
2023/07/19 06:28:41;;;;;;;12.00;5.15;;;;;;;18.55;72.51;101183.72;5286780;28;20086;-72
2023/07/19 06:31:13;;;;;;;10.97;5.27;;;;;;;18.52;71.27;101177.69;5287317;28;20036;-72
2023/07/19 06:33:44;;;;;;;12.00;5.23;;;;;;;18.50;72.13;101184.78;5286663;28;20155;-72
2023/07/19 06:36:15;;;;;;;10.03;4.73;;;;;;;18.55;71.38;101186.34;5285917;28;20032;-71
2023/07/19 06:38:47;;;;;;;10.20;5.17;;;;;;;18.56;71.43;101181.91;5285850;28;20059;-71
2023/07/19 06:41:18;;;;;;;9.55;5.72;;;;;;;18.39;71.75;101180.81;5286979;28;20097;-72
2023/07/19 06:43:50;;;;;;;9.60;4.90;;;;;;;18.48;72.67;101186.63;5286929;28;20028;-71
2023/07/19 06:46:22;;;;;;;9.90;5.80;;;;;;;18.35;72.48;101189.78;5286883;28;20033;-71
2023/07/19 06:48:53;;;;;;;13.02;5.35;;;;;;;18.38;73.15;101186.16;5286756;28;20044;-71
2023/07/19 06:51:24;;;;;;;9.77;5.23;;;;;;;18.47;73.51;101183.16;5286347;28;20035;-72
2023/07/19 06:53:56;;;;;;;9.47;5.70;;;;;;;18.61;74.18;101185.22;5286565;28;20174;-72
2023/07/19 06:56:27;;;;;;;15.17;5.23;;;;;;;18.88;73.13;101190.34;5286634;28;20040;-72
2023/07/19 06:58:59;;;;;;;10.10;5.20;;;;;;;19.05;72.14;101194.94;5286169;28;20077;-71
2023/07/19 07:01:30;;;;;;;11.03;5.60;;;;;;;19.24;71.31;101187.09;5285572;28;20163;-71
2023/07/19 07:04:02;;;;;;;8.35;5.43;;;;;;;19.13;68.55;101193.69;5286527;28;20540;-71
2023/07/19 07:06:33;;;;;;;12.17;4.93;;;;;;;19.09;70.57;101192.13;5286031;28;20033;-72
2023/07/19 07:09:05;;;;;;;8.60;5.03;;;;;;;19.50;70.51;101186.81;5285246;28;20428;-72
2023/07/19 07:11:36;;;;;;;7.50;4.77;;;;;;;19.82;69.17;101194.31;5285090;28;20040;-72
2023/07/19 07:14:08;;;;;;;9.97;4.90;;;;;;;19.94;68.28;101191.09;5286194;28;20455;-71
2023/07/19 07:16:39;;;;;;;8.98;4.95;;;;;;;19.97;66.49;101200.69;5286248;28;20115;-70
2023/07/19 07:19:11;;;;;;;8.77;4.07;;;;;;;20.15;64.66;101194.53;5285995;28;20028;-72
2023/07/19 07:21:42;;;;;;;9.13;4.67;;;;;;;20.22;64.52;101203.03;5285906;28;20055;-71
2023/07/19 07:24:13;;;;;;;12.80;5.50;;;;;;;20.17;64.78;101200.63;5284561;28;20408;-72
2023/07/19 07:26:45;;;;;;;8.63;4.50;;;;;;;20.12;64.62;101193.81;5286114;28;20025;-72
2023/07/19 07:29:16;;;;;;;8.73;4.47;;;;;;;20.09;64.63;101199.25;5285661;28;20032;-72
2023/07/19 07:31:47;;;;;;;7.80;4.37;;;;;;;20.06;64.56;101194.97;5285968;28;20028;-72
2023/07/19 07:34:19;;;;;;;9.00;4.20;;;;;;;20.25;64.96;101205.53;5285098;28;20056;-72
2023/07/19 07:36:50;;;;;;;18.90;5.13;;;;;;;20.22;63.85;101195.09;5285815;28;20394;-72
2023/07/19 07:39:22;;;;;;;12.73;4.20;;;;;;;20.20;64.23;101189.03;5285886;28;20081;-72
2023/07/19 07:41:53;;;;;;;11.33;4.63;;;;;;;20.43;63.96;101182.66;5285791;28;20069;-73
2023/07/19 07:44:25;;;;;;;12.77;4.23;;;;;;;20.59;62.51;101191.56;5285478;28;20486;-72
2023/07/19 07:46:56;;;;;;;7.68;4.45;;;;;;;20.71;61.98;101192.78;5285672;28;20033;-70
2023/07/19 07:49:28;;;;;;;8.10;3.40;;;;;;;20.74;61.52;101189.16;5285630;28;20028;-71
2023/07/19 07:51:59;;;;;;;6.78;3.50;;;;;;;20.63;61.32;101184.34;5285542;28;20044;-71
2023/07/19 07:54:31;;;;;;;8.73;3.73;;;;;;;20.57;60.67;101181.97;5285202;28;20111;-71
2023/07/19 07:57:02;;;;;;;8.17;3.60;;;;;;;20.68;60.25;101189.44;5285277;28;20430;-71
2023/07/19 07:59:34;;;;;;;7.40;3.70;;;;;;;20.78;59.57;101193.34;5285007;28;20066;-71
2023/07/19 08:02:06;;;;;;;11.33;3.60;;;;;;;21.13;59.41;101180.97;5285467;28;20482;-71
2023/07/19 08:04:37;;;;;;;7.55;3.90;;;;;;;21.26;58.65;101188.31;5285531;28;20479;-71
2023/07/19 08:07:08;;;;;;;5.73;3.00;;;;;;;21.26;58.74;101180.38;5284164;28;20020;-71
2023/07/19 08:09:40;;;;;;;7.17;3.67;;;;;;;21.13;59.20;101178.34;5285127;28;20074;-71
2023/07/19 08:12:13;;;;;;;6.50;3.30;;;;;;;21.00;60.25;101184.34;5285064;28;20033;-71
2023/07/19 08:14:45;;;;;;;7.10;2.97;;;;;;;21.02;59.63;101174.53;5285032;28;20024;-72
2023/07/19 08:17:16;;;;;;;10.70;3.25;;;;;;;21.09;57.26;101176.78;5285397;28;20150;-72
2023/07/19 08:19:48;;;;;;;9.27;3.40;;;;;;;21.19;54.62;101177.19;5285003;28;20039;-70
2023/07/19 08:22:28;;;;;;;9.13;3.53;;;;;;;21.64;55.44;101175.75;5284674;28;20132;-72
2023/07/19 08:25:00;;;;;;;13.20;4.63;;;;;;;21.68;54.53;101168.47;5283702;28;20116;-72
2023/07/19 08:27:32;;;;;;;7.30;3.87;;;;;;;21.66;53.34;101167.72;5284790;28;20115;-71
2023/07/19 08:30:09;;;;;;;8.13;3.63;;;;;;;21.65;53.86;101172.16;5283121;28;20108;-70
2023/07/19 08:32:42;;;;;;;7.45;3.50;;;;;;;21.48;52.89;101174.84;5284489;28;20109;-70
2023/07/19 08:35:14;;;;;;;7.03;2.60;;;;;;;21.74;51.65;101173.47;5284644;28;20028;-71
2023/07/19 08:37:46;;;;;;;7.28;2.60;;;;;;;21.38;52.19;101177.09;5284523;28;20149;-71
2023/07/19 08:40:18;;;;;;;6.57;2.75;;;;;;;21.15;53.20;101178.25;5284471;28;20141;-71
2023/07/19 08:42:50;;;;;;;8.10;3.20;;;;;;;21.21;54.74;101174.44;5284352;28;20032;-71
2023/07/19 08:45:25;;;;;;;10.13;3.85;;;;;;;21.13;55.29;101177.47;5284366;28;20024;-71
2023/07/19 08:47:57;;;;;;;9.05;3.58;;;;;;;21.12;56.59;101168.69;5284392;28;20024;-70
2023/07/19 08:50:28;;;;;;;10.20;3.87;;;;;;;21.10;58.02;101178.47;5284366;28;20024;-72
2023/07/19 08:53:02;;;;;;;9.53;3.53;;;;;;;21.25;57.75;101174.22;5284230;28;20283;-73
2023/07/19 08:55:33;;;;;;;8.07;4.00;;;;;;;21.32;56.77;101177.41;5284217;28;20051;-71
2023/07/19 08:58:05;;;;;;;7.23;3.60;;;;;;;21.36;56.81;101178.94;5283610;28;20099;-72
2023/07/19 09:00:38;;;;;;;8.83;4.63;;;;;;;21.23;57.03;101181.38;5284179;28;20103;-71
2023/07/19 09:03:09;;;;;;;10.63;3.92;;;;;;;21.46;56.32;101184.63;5283840;28;20035;-72
2023/07/19 09:05:41;;;;;;;6.77;3.13;;;;;;;22.00;54.91;101173.84;5284117;28;20036;-72
2023/07/19 09:08:14;;;;;;;10.15;4.35;;;;;;;21.86;55.87;101169.28;5283693;28;20032;-72
2023/07/19 09:10:46;;;;;;;8.82;3.72;;;;;;;22.31;55.23;101177.50;5283879;28;20079;-71
2023/07/19 09:13:20;;;;;;;10.18;3.70;;;;;;;22.87;53.60;101172.53;5283988;28;20483;-71
2023/07/19 09:15:51;;;;;;;7.72;3.97;;;;;;;23.14;52.10;101172.75;5283487;28;20387;-71
2023/07/19 09:18:29;;;;;;;8.00;3.70;;;;;;;23.09;51.82;101169.50;5283648;28;20041;-71
2023/07/19 09:21:01;;;;;;;7.55;3.70;;;;;;;23.16;52.61;101165.53;5283709;28;20021;-71
2023/07/19 09:23:36;;;;;;;8.73;3.97;;;;;;;22.82;54.11;101172.81;5283860;28;20036;-72
2023/07/19 09:26:08;;;;;;;9.57;4.00;;;;;;;22.67;54.10;101168.38;5283729;28;20025;-72
2023/07/19 09:28:39;;;;;;;9.07;3.30;;;;;;;23.40;53.26;101173.00;5282066;28;20032;-72
2023/07/19 09:31:10;;;;;;;5.87;3.50;;;;;;;23.50;52.16;101174.13;5282845;28;20089;-72
2023/07/19 09:33:42;;;;;;;9.67;4.13;;;;;;;23.51;51.09;101178.50;5283034;28;20139;-72
2023/07/19 09:36:19;;;;;;;6.87;3.17;;;;;;;23.14;51.23;101169.25;5283785;28;20078;-72
2023/07/19 09:38:52;;;;;;;5.40;2.80;;;;;;;22.79;51.85;101180.94;5283410;28;20494;-71
2023/07/19 09:41:24;;;;;;;10.15;3.47;;;;;;;23.01;51.66;101167.28;5281938;28;20039;-72
2023/07/19 09:43:56;;;;;;;7.35;3.35;;;;;;;22.71;52.14;101173.41;5283586;28;20463;-71
2023/07/19 09:46:27;;;;;;;;;;;;;;;23.32;51.15;101181.44;5283769;28;20036;-71
2023/07/19 09:48:59;;;;;;;6.77;2.63;;;;;;;23.11;52.80;101167.59;5282548;28;20314;-71
2023/07/19 09:51:31;;;;;;;8.10;2.97;;;;;;;23.35;52.26;101173.25;5283338;28;20036;-72
2023/07/19 09:54:07;;;;;;;5.50;2.58;;;;;;;23.64;51.57;101173.28;5283413;28;20032;-72
2023/07/19 09:56:40;;;;;;;7.20;3.17;;;;;;;23.78;50.71;101170.63;5282771;28;20032;-71
2023/07/19 09:59:16;;;;;;;11.65;3.33;;;;;;;22.98;52.98;101166.59;5281780;28;20021;-72
2023/07/19 10:01:47;;;;;;;8.45;3.05;;;;;;;22.66;54.44;101169.31;5281884;28;20433;-71
2023/07/19 10:04:29;;;;;;;6.70;2.97;;;;;;;22.71;54.97;101168.09;5283221;28;20037;-71
2023/07/19 10:07:04;;;;;;;5.43;3.17;;;;;;;22.87;54.46;101167.22;5283444;28;20270;-71
2023/07/19 10:09:38;;;;;;;10.55;3.38;;;;;;;23.33;52.78;101171.63;5283282;28;20107;-72
2023/07/19 10:12:18;;;;;;;8.27;3.00;;;;;;;23.29;51.38;101176.28;5283153;28;20060;-71
2023/07/19 10:14:59;;;;;;;8.45;3.05;;;;;;;23.51;52.12;101175.84;5283460;28;20486;-71
2023/07/19 10:17:52;;;;;;;9.15;3.53;;;;;;;23.75;51.68;101167.31;5283077;28;20036;-72
2023/07/19 10:20:50;;;;;;;14.10;3.30;;;;;;;23.33;51.39;101171.63;5282830;28;20055;-72
2023/07/19 10:23:21;;;;;;;8.07;3.33;;;;;;;23.36;51.65;101172.31;5282669;28;20095;-72
2023/07/19 10:25:53;;;;;;;5.27;2.40;;;;;;;23.39;52.56;101173.91;5281902;28;20037;-71
2023/07/19 10:28:31;;;;;;;7.80;3.33;;;;;;;23.70;51.47;101172.03;5281367;28;20051;-71
2023/07/19 10:31:03;;;;;;;5.65;2.80;;;;;;;23.74;49.79;101176.22;5283186;28;20021;-71
2023/07/19 10:33:35;;;;;;;5.93;2.50;;;;;;;23.87;49.94;101173.69;5282821;28;20060;-71
2023/07/19 10:36:08;;;;;;;7.07;2.40;;;;;;;23.90;48.46;101176.16;5282879;28;20074;-71
2023/07/19 10:38:40;;;;;;;6.95;2.58;;;;;;;25.21;47.59;101176.50;5282856;28;20028;-72
2023/07/19 10:41:12;;;;;;;6.03;2.42;;;;;;;25.10;45.00;101168.34;5282932;28;20032;-72
2023/07/19 10:43:44;;;;;;;8.88;2.75;;;;;;;24.47;46.18;101172.53;5282903;28;20464;-73
2023/07/19 10:46:15;;;;;;;5.57;2.47;;;;;;;23.94;46.28;101175.00;5282788;28;20031;-72
2023/07/19 10:48:50;;;;;;;5.15;2.20;;;;;;;23.54;47.28;101173.00;5282832;28;20279;-72
2023/07/19 10:51:24;;;;;;;7.13;2.15;;;;;;;23.79;47.25;101167.00;5282721;28;20032;-72
2023/07/19 10:53:58;;;;;;;4.35;2.00;;;;;;;24.78;45.83;101166.06;5282716;28;20036;-71
2023/07/19 10:56:32;;;;;;;6.50;2.28;;;;;;;25.81;42.93;101164.34;5282679;28;20033;-72
2023/07/19 10:59:04;;;;;;;4.70;2.00;;;;;;;26.48;41.05;101160.41;5282768;28;20047;-72
2023/07/19 11:01:35;;;;;;;4.70;2.03;;;;;;;26.00;41.63;101168.38;5282730;28;20112;-72
2023/07/19 11:04:07;;;;;;;6.35;2.35;;;;;;;24.25;44.68;101171.25;5281585;28;20032;-72
2023/07/19 11:06:54;;;;;;;8.45;2.70;;;;;;;23.09;49.20;101180.16;5282616;28;20036;-72
2023/07/19 11:09:25;;;;;;;7.85;2.67;;;;;;;21.93;61.17;101177.75;5285593;28;20456;-73
2023/07/19 11:11:57;;;;;;;7.10;3.03;;;;;;;20.62;68.32;101169.38;5286365;28;20090;-72
2023/07/19 11:14:33;;;;;;;6.75;2.28;;;;;;;20.97;70.41;101168.59;5286250;28;20132;-71
2023/07/19 11:17:05;;;;;;;6.25;2.10;;;;;;;23.74;59.96;101163.78;5286318;28;20387;-72
2023/07/19 11:19:38;;;;;;;4.60;1.88;;;;;;;26.04;49.78;101172.56;5285058;28;20035;-72
2023/07/19 11:22:10;;;;;;;4.78;2.03;;;;;;;27.24;44.76;101154.75;5286390;28;20436;-72
2023/07/19 11:24:41;;;;;;;5.13;1.63;;;;;;;27.89;41.07;101158.59;5285888;28;20094;-72
2023/07/19 11:27:13;;;;;;;5.00;1.95;;;;;;;28.80;39.15;101169.97;5286153;28;20364;-73
2023/07/19 11:29:48;;;;;;;;;;;;;;;27.53;40.29;101157.00;5284901;28;20039;-72
2023/07/19 11:32:21;;;;;;;4.40;2.25;;;;;;;27.54;41.06;101162.25;5285850;28;19917;-72
2023/07/19 11:34:55;;;;;;;6.50;2.03;;;;;;;26.37;41.56;101155.88;5286010;28;20376;-72
2023/07/19 11:37:29;;;;;;;9.13;2.22;;;;;;;25.34;44.38;101155.22;5285923;28;20051;-73
2023/07/19 11:40:05;;;;;;;4.57;1.92;;;;;;;26.15;43.62;101153.94;5285930;28;20504;-72
2023/07/19 11:42:49;;;;;;;4.53;2.13;;;;;;;28.68;38.65;101147.72;5285753;28;20033;-72
2023/07/19 11:45:25;;;;;;;6.30;1.95;;;;;;;28.55;37.95;101145.19;5285721;28;20051;-72
2023/07/19 11:48:02;;;;;;;3.70;1.80;;;;;;;28.11;37.26;101147.03;5285797;28;20360;-72